Main page
METAR-TAF:

METAR-TAF

Airports :

Sleipner, Norway

Oil platform

latitude: 58-22-00N, longitude: 001-54-25E, elevation: 50 m

Current weather observation

The report was made 21 minutes ago, at 06:50 UTC
Wind 35 kt from the West
Temperature 14°C
Humidity 82%
Pressure 997 hPa
Visibility 10 km or more
Broken clouds at a height of 1400 ft

METAR: ENSL 190650Z 26035KT 9999 BKN014 14/11 Q0997 W14/S4

Time: 09:11 (07:11 UTC)

Forecast

The report was made 2 hours and 11 minutes ago, at 05:00 UTC
Forecast valid from 19 at 06 UTC to 19 at 15 UTC
Wind 30 kt from the West
Visibility 10 km or more
Scattered clouds at a height of 1000 ft
Broken clouds at a height of 2000 ft
light rain showers
Temporary
from 19 at 06 UTC to 19 at 15 UTC
Broken clouds at a height of 1000 ft
Few clouds at a height of 1500 ft, Cumulonimbus.
rain showers

TAF: ENSL 190500Z 1906/1915 26030KT 9999 -SHRA SCT010 BKN020 TEMPO 1906/1915 SHRA BKN010 FEW015CB

Weather observations and forecasts of more than 4000 airports (METAR and TAF reports).

The available stations are represented by yellow and red dots on the map.

Hover mouse over dot to see the name of the station.

Then click to see weather observations and forecasts.

To change the map : click on the green buttons with a black cross to zoom in, on the green button with a dash to zoom out, or on the green arrows for adjacent maps.


METAR-TAF: